sensor_id;sensor_type;location;lat;lon;timestamp;pressure;altitude;pressure_sealevel;temperature;humidity
6506;BME280;3286;49.858;8.768;2022-10-16T00:01:27;98913.16;;;18.43;63.94
6506;BME280;3286;49.858;8.768;2022-10-16T00:03:55;98926.53;;;18.50;63.65
6506;BME280;3286;49.858;8.768;2022-10-16T00:06:22;98935.13;;;18.72;62.49
6506;BME280;3286;49.858;8.768;2022-10-16T00:08:52;98919.06;;;18.65;63.09
6506;BME280;3286;49.858;8.768;2022-10-16T00:11:21;98913.59;;;19.13;61.31
6506;BME280;3286;49.858;8.768;2022-10-16T00:13:55;98915.59;;;18.65;62.65
6506;BME280;3286;49.858;8.768;2022-10-16T00:16:24;98918.66;;;18.68;62.70
6506;BME280;3286;49.858;8.768;2022-10-16T00:18:55;98927.31;;;18.64;62.32
6506;BME280;3286;49.858;8.768;2022-10-16T00:21:24;98925.16;;;18.93;61.62
6506;BME280;3286;49.858;8.768;2022-10-16T00:23:53;98933.22;;;18.86;62.15
6506;BME280;3286;49.858;8.768;2022-10-16T00:26:22;98939.88;;;18.63;62.31
6506;BME280;3286;49.858;8.768;2022-10-16T00:28:51;98934.63;;;18.95;61.54
6506;BME280;3286;49.858;8.768;2022-10-16T00:31:21;98927.69;;;18.74;61.60
6506;BME280;3286;49.858;8.768;2022-10-16T00:33:49;98921.81;;;18.32;62.60
6506;BME280;3286;49.858;8.768;2022-10-16T00:36:20;98932.69;;;18.57;62.08
6506;BME280;3286;49.858;8.768;2022-10-16T00:38:50;98947.94;;;18.23;63.02
6506;BME280;3286;49.858;8.768;2022-10-16T00:41:22;98942.34;;;18.58;61.77
6506;BME280;3286;49.858;8.768;2022-10-16T00:43:51;98939.47;;;18.53;62.10
6506;BME280;3286;49.858;8.768;2022-10-16T00:46:21;98933.91;;;18.54;62.00
6506;BME280;3286;49.858;8.768;2022-10-16T00:48:54;98927.50;;;18.69;61.12
6506;BME280;3286;49.858;8.768;2022-10-16T00:51:26;98935.97;;;18.66;61.44
6506;BME280;3286;49.858;8.768;2022-10-16T00:53:57;98933.28;;;18.52;61.08
6506;BME280;3286;49.858;8.768;2022-10-16T00:56:24;98930.03;;;18.37;61.74
6506;BME280;3286;49.858;8.768;2022-10-16T00:58:52;98935.63;;;18.02;62.55
6506;BME280;3286;49.858;8.768;2022-10-16T01:01:22;98944.88;;;18.19;61.87
6506;BME280;3286;49.858;8.768;2022-10-16T01:03:50;98946.28;;;18.49;61.00
6506;BME280;3286;49.858;8.768;2022-10-16T01:06:23;98944.84;;;18.39;60.90
6506;BME280;3286;49.858;8.768;2022-10-16T01:08:59;98945.19;;;18.77;60.09
6506;BME280;3286;49.858;8.768;2022-10-16T01:11:34;98961.25;;;17.83;62.48
6506;BME280;3286;49.858;8.768;2022-10-16T01:14:11;98944.66;;;18.21;61.42
6506;BME280;3286;49.858;8.768;2022-10-16T01:16:45;98944.81;;;17.72;63.25
6506;BME280;3286;49.858;8.768;2022-10-16T01:19:20;98951.16;;;17.64;63.29
6506;BME280;3286;49.858;8.768;2022-10-16T01:21:53;98953.50;;;18.21;61.25
6506;BME280;3286;49.858;8.768;2022-10-16T01:24:31;98943.41;;;18.44;60.95
6506;BME280;3286;49.858;8.768;2022-10-16T01:27:06;98947.53;;;18.33;61.30
6506;BME280;3286;49.858;8.768;2022-10-16T01:29:37;98943.22;;;18.05;61.58
6506;BME280;3286;49.858;8.768;2022-10-16T01:32:10;98947.94;;;18.43;60.83
6506;BME280;3286;49.858;8.768;2022-10-16T01:34:47;98949.16;;;18.27;60.89
6506;BME280;3286;49.858;8.768;2022-10-16T01:37:23;98949.56;;;18.44;60.40
6506;BME280;3286;49.858;8.768;2022-10-16T01:39:55;98966.25;;;18.33;60.80
6506;BME280;3286;49.858;8.768;2022-10-16T01:42:29;98954.09;;;18.44;60.64
6506;BME280;3286;49.858;8.768;2022-10-16T01:44:59;98947.94;;;18.30;60.67
6506;BME280;3286;49.858;8.768;2022-10-16T01:47:27;98951.41;;;18.50;60.34
6506;BME280;3286;49.858;8.768;2022-10-16T01:50:00;98952.81;;;18.66;59.52
6506;BME280;3286;49.858;8.768;2022-10-16T01:52:32;98955.13;;;18.49;59.93
6506;BME280;3286;49.858;8.768;2022-10-16T01:55:02;98963.56;;;18.46;60.25
6506;BME280;3286;49.858;8.768;2022-10-16T01:57:36;98968.44;;;18.76;59.32
6506;BME280;3286;49.858;8.768;2022-10-16T02:00:08;98982.47;;;17.98;61.55
6506;BME280;3286;49.858;8.768;2022-10-16T02:02:45;98981.25;;;18.27;61.13
6506;BME280;3286;49.858;8.768;2022-10-16T02:05:19;98987.66;;;18.39;60.99
6506;BME280;3286;49.858;8.768;2022-10-16T02:07:49;98988.47;;;18.47;60.52
6506;BME280;3286;49.858;8.768;2022-10-16T02:10:19;98980.22;;;18.62;59.98
6506;BME280;3286;49.858;8.768;2022-10-16T02:12:50;98976.50;;;18.49;60.96
6506;BME280;3286;49.858;8.768;2022-10-16T02:15:24;98973.63;;;18.44;61.40
6506;BME280;3286;49.858;8.768;2022-10-16T02:17:51;98976.72;;;18.41;61.70
6506;BME280;3286;49.858;8.768;2022-10-16T02:20:21;98971.34;;;18.54;61.31
6506;BME280;3286;49.858;8.768;2022-10-16T02:22:52;98959.66;;;18.42;61.96
6506;BME280;3286;49.858;8.768;2022-10-16T02:25:24;98961.88;;;18.65;61.11
6506;BME280;3286;49.858;8.768;2022-10-16T02:28:01;98961.47;;;18.68;61.50
6506;BME280;3286;49.858;8.768;2022-10-16T02:30:34;98968.25;;;18.71;61.07
6506;BME280;3286;49.858;8.768;2022-10-16T02:33:07;98963.28;;;18.75;61.16
6506;BME280;3286;49.858;8.768;2022-10-16T02:35:35;98962.91;;;18.64;61.09
6506;BME280;3286;49.858;8.768;2022-10-16T02:38:05;98963.66;;;18.92;60.39
6506;BME280;3286;49.858;8.768;2022-10-16T02:40:33;98963.09;;;18.83;60.72
6506;BME280;3286;49.858;8.768;2022-10-16T02:43:03;98963.69;;;18.78;60.99
6506;BME280;3286;49.858;8.768;2022-10-16T02:45:31;98960.41;;;18.76;60.99
6506;BME280;3286;49.858;8.768;2022-10-16T02:47:58;98961.81;;;18.92;60.66
6506;BME280;3286;49.858;8.768;2022-10-16T02:50:25;98968.88;;;18.66;61.44
6506;BME280;3286;49.858;8.768;2022-10-16T02:52:52;98975.59;;;18.96;60.68
6506;BME280;3286;49.858;8.768;2022-10-16T02:55:23;98977.09;;;18.72;61.59
6506;BME280;3286;49.858;8.768;2022-10-16T02:57:51;98981.44;;;18.52;62.29
6506;BME280;3286;49.858;8.768;2022-10-16T03:00:20;98975.25;;;18.79;61.60
6506;BME280;3286;49.858;8.768;2022-10-16T03:02:50;98979.16;;;18.76;61.62
6506;BME280;3286;49.858;8.768;2022-10-16T03:05:20;98981.59;;;18.85;61.08
6506;BME280;3286;49.858;8.768;2022-10-16T03:07:47;98981.97;;;19.08;60.42
6506;BME280;3286;49.858;8.768;2022-10-16T03:10:16;98985.91;;;18.86;61.34
6506;BME280;3286;49.858;8.768;2022-10-16T03:12:42;98986.16;;;18.77;61.87
6506;BME280;3286;49.858;8.768;2022-10-16T03:15:09;98989.19;;;18.88;61.59
6506;BME280;3286;49.858;8.768;2022-10-16T03:17:37;98995.72;;;19.19;60.27
6506;BME280;3286;49.858;8.768;2022-10-16T03:20:09;98995.78;;;18.99;61.17
6506;BME280;3286;49.858;8.768;2022-10-16T03:22:39;98991.91;;;18.81;61.88
6506;BME280;3286;49.858;8.768;2022-10-16T03:25:06;99003.38;;;18.95;61.42
6506;BME280;3286;49.858;8.768;2022-10-16T03:27:33;98996.19;;;18.89;61.63
6506;BME280;3286;49.858;8.768;2022-10-16T03:30:00;98997.03;;;18.76;62.25
6506;BME280;3286;49.858;8.768;2022-10-16T03:32:28;98998.06;;;18.81;61.96
6506;BME280;3286;49.858;8.768;2022-10-16T03:34:58;98990.88;;;18.82;61.94
6506;BME280;3286;49.858;8.768;2022-10-16T03:37:34;98998.06;;;18.81;61.75
6506;BME280;3286;49.858;8.768;2022-10-16T03:40:01;98999.75;;;18.69;62.23
6506;BME280;3286;49.858;8.768;2022-10-16T03:42:28;98998.53;;;18.65;62.42
6506;BME280;3286;49.858;8.768;2022-10-16T03:44:54;98993.72;;;18.94;61.60
6506;BME280;3286;49.858;8.768;2022-10-16T03:47:27;98997.00;;;18.96;61.58
6506;BME280;3286;49.858;8.768;2022-10-16T03:49:53;98999.09;;;18.80;61.94
6506;BME280;3286;49.858;8.768;2022-10-16T03:52:21;99003.19;;;18.96;61.44
6506;BME280;3286;49.858;8.768;2022-10-16T03:54:48;99005.66;;;18.91;61.65
6506;BME280;3286;49.858;8.768;2022-10-16T03:57:16;99019.06;;;18.85;62.12
6506;BME280;3286;49.858;8.768;2022-10-16T03:59:43;99015.81;;;18.69;62.64
6506;BME280;3286;49.858;8.768;2022-10-16T04:02:10;99011.91;;;18.58;63.13
6506;BME280;3286;49.858;8.768;2022-10-16T04:04:38;99008.16;;;18.86;62.13
6506;BME280;3286;49.858;8.768;2022-10-16T04:07:09;99009.63;;;18.82;62.20
6506;BME280;3286;49.858;8.768;2022-10-16T04:09:40;99028.72;;;18.86;62.10
6506;BME280;3286;49.858;8.768;2022-10-16T04:12:07;99020.53;;;18.67;62.55
6506;BME280;3286;49.858;8.768;2022-10-16T04:14:34;99021.75;;;18.64;62.69
6506;BME280;3286;49.858;8.768;2022-10-16T04:17:00;99009.19;;;18.99;61.68
6506;BME280;3286;49.858;8.768;2022-10-16T04:19:29;99019.25;;;18.90;62.10
6506;BME280;3286;49.858;8.768;2022-10-16T04:21:56;99018.25;;;18.84;62.21
6506;BME280;3286;49.858;8.768;2022-10-16T04:24:24;99014.13;;;18.81;62.21
6506;BME280;3286;49.858;8.768;2022-10-16T04:26:55;99013.31;;;18.74;62.63
6506;BME280;3286;49.858;8.768;2022-10-16T04:29:27;99020.72;;;18.79;62.24
6506;BME280;3286;49.858;8.768;2022-10-16T04:31:54;99023.16;;;18.94;61.99
6506;BME280;3286;49.858;8.768;2022-10-16T04:34:21;99024.59;;;18.90;61.95
6506;BME280;3286;49.858;8.768;2022-10-16T04:36:48;99016.16;;;18.93;61.82
6506;BME280;3286;49.858;8.768;2022-10-16T04:39:22;99021.34;;;18.81;62.15
6506;BME280;3286;49.858;8.768;2022-10-16T04:41:53;99017.41;;;18.90;61.86
6506;BME280;3286;49.858;8.768;2022-10-16T04:44:23;99016.75;;;18.95;61.97
6506;BME280;3286;49.858;8.768;2022-10-16T04:46:52;99015.38;;;18.72;62.66
6506;BME280;3286;49.858;8.768;2022-10-16T04:49:20;99029.78;;;18.98;61.60
6506;BME280;3286;49.858;8.768;2022-10-16T04:51:47;99027.31;;;18.76;62.17
6506;BME280;3286;49.858;8.768;2022-10-16T04:54:15;99033.09;;;18.80;62.16
6506;BME280;3286;49.858;8.768;2022-10-16T04:56:42;99023.41;;;18.79;62.07
6506;BME280;3286;49.858;8.768;2022-10-16T04:59:14;99013.75;;;18.44;62.88
6506;BME280;3286;49.858;8.768;2022-10-16T05:01:43;99019.69;;;18.73;62.59
6506;BME280;3286;49.858;8.768;2022-10-16T05:04:17;99022.19;;;18.68;62.53
6506;BME280;3286;49.858;8.768;2022-10-16T05:06:43;99031.41;;;18.86;61.68
6506;BME280;3286;49.858;8.768;2022-10-16T05:09:12;99031.22;;;19.01;61.23
6506;BME280;3286;49.858;8.768;2022-10-16T05:11:39;99019.66;;;18.93;61.87
6506;BME280;3286;49.858;8.768;2022-10-16T05:14:09;99016.56;;;18.90;62.05
6506;BME280;3286;49.858;8.768;2022-10-16T05:16:38;99017.78;;;18.94;61.84
6506;BME280;3286;49.858;8.768;2022-10-16T05:19:06;99017.59;;;18.95;61.98
6506;BME280;3286;49.858;8.768;2022-10-16T05:21:33;99006.91;;;18.89;62.14
6506;BME280;3286;49.858;8.768;2022-10-16T05:24:01;99030.19;;;18.88;61.59
6506;BME280;3286;49.858;8.768;2022-10-16T05:26:28;99031.47;;;18.59;62.72
6506;BME280;3286;49.858;8.768;2022-10-16T05:28:56;99021.13;;;18.89;62.12
6506;BME280;3286;49.858;8.768;2022-10-16T05:31:23;99025.25;;;18.78;62.30
6506;BME280;3286;49.858;8.768;2022-10-16T05:33:50;99027.69;;;18.93;61.19
6506;BME280;3286;49.858;8.768;2022-10-16T05:36:18;99024.47;;;18.51;62.22
6506;BME280;3286;49.858;8.768;2022-10-16T05:38:44;99025.88;;;18.67;61.80
6506;BME280;3286;49.858;8.768;2022-10-16T05:41:11;99027.53;;;18.61;61.59
6506;BME280;3286;49.858;8.768;2022-10-16T05:43:39;99030.00;;;18.70;61.45
6506;BME280;3286;49.858;8.768;2022-10-16T05:46:06;99037.41;;;18.74;61.16
6506;BME280;3286;49.858;8.768;2022-10-16T05:48:32;99037.41;;;18.67;60.93
6506;BME280;3286;49.858;8.768;2022-10-16T05:51:00;99040.28;;;18.52;61.68
6506;BME280;3286;49.858;8.768;2022-10-16T05:53:31;99052.63;;;18.33;62.46
6506;BME280;3286;49.858;8.768;2022-10-16T05:55:58;99047.06;;;18.28;62.73
6506;BME280;3286;49.858;8.768;2022-10-16T05:58:27;99049.16;;;18.33;62.53
6506;BME280;3286;49.858;8.768;2022-10-16T06:00:57;99050.78;;;18.27;63.03
6506;BME280;3286;49.858;8.768;2022-10-16T06:03:24;99059.00;;;18.32;63.14
6506;BME280;3286;49.858;8.768;2022-10-16T06:05:53;99072.41;;;18.46;62.64
6506;BME280;3286;49.858;8.768;2022-10-16T06:08:22;99080.00;;;18.42;62.54
6506;BME280;3286;49.858;8.768;2022-10-16T06:11:02;99077.53;;;18.47;62.30
6506;BME280;3286;49.858;8.768;2022-10-16T06:13:30;99081.66;;;18.43;62.42
6506;BME280;3286;49.858;8.768;2022-10-16T06:16:00;99076.09;;;18.58;61.81
6506;BME280;3286;49.858;8.768;2022-10-16T06:18:27;99080.41;;;18.59;61.77
6506;BME280;3286;49.858;8.768;2022-10-16T06:20:56;99087.41;;;18.47;62.17
6506;BME280;3286;49.858;8.768;2022-10-16T06:23:23;99084.53;;;18.48;62.06
6506;BME280;3286;49.858;8.768;2022-10-16T06:25:53;99086.56;;;18.33;62.46
6506;BME280;3286;49.858;8.768;2022-10-16T06:28:20;99083.91;;;18.19;62.95
6506;BME280;3286;49.858;8.768;2022-10-16T06:30:58;99085.38;;;18.49;62.19
6506;BME280;3286;49.858;8.768;2022-10-16T06:33:27;99085.97;;;18.64;61.35
6506;BME280;3286;49.858;8.768;2022-10-16T06:35:56;99088.66;;;18.58;61.69
6506;BME280;3286;49.858;8.768;2022-10-16T06:38:25;99089.88;;;18.68;61.28
6506;BME280;3286;49.858;8.768;2022-10-16T06:41:00;99084.75;;;18.67;61.32
6506;BME280;3286;49.858;8.768;2022-10-16T06:43:31;99093.38;;;18.42;62.20
6506;BME280;3286;49.858;8.768;2022-10-16T06:45:59;99093.78;;;18.39;62.46
6506;BME280;3286;49.858;8.768;2022-10-16T06:48:27;99093.38;;;18.49;62.31
6506;BME280;3286;49.858;8.768;2022-10-16T06:50:56;99089.69;;;18.77;61.61
6506;BME280;3286;49.858;8.768;2022-10-16T06:53:23;99091.53;;;18.36;62.50
6506;BME280;3286;49.858;8.768;2022-10-16T06:55:50;99095.84;;;18.37;62.38
6506;BME280;3286;49.858;8.768;2022-10-16T06:58:18;99107.94;;;18.26;62.92
6506;BME280;3286;49.858;8.768;2022-10-16T07:00:46;99113.28;;;18.13;63.60
6506;BME280;3286;49.858;8.768;2022-10-16T07:03:14;99121.47;;;18.11;63.93
6506;BME280;3286;49.858;8.768;2022-10-16T07:05:42;99121.38;;;17.91;64.64
6506;BME280;3286;49.858;8.768;2022-10-16T07:08:09;99119.91;;;18.37;63.18
6506;BME280;3286;49.858;8.768;2022-10-16T07:10:37;99113.53;;;18.51;63.01
6506;BME280;3286;49.858;8.768;2022-10-16T07:13:06;99111.72;;;18.59;63.13
6506;BME280;3286;49.858;8.768;2022-10-16T07:15:33;99109.44;;;18.62;63.53
6506;BME280;3286;49.858;8.768;2022-10-16T07:18:04;99123.66;;;18.76;62.83
6506;BME280;3286;49.858;8.768;2022-10-16T07:20:30;99124.03;;;18.66;63.28
6506;BME280;3286;49.858;8.768;2022-10-16T07:22:59;99132.09;;;18.93;62.65
6506;BME280;3286;49.858;8.768;2022-10-16T07:25:33;99139.28;;;18.73;63.35
6506;BME280;3286;49.858;8.768;2022-10-16T07:28:03;99139.91;;;18.81;62.76
6506;BME280;3286;49.858;8.768;2022-10-16T07:30:30;99144.63;;;18.46;63.88
6506;BME280;3286;49.858;8.768;2022-10-16T07:32:56;99151.63;;;18.60;63.64
6506;BME280;3286;49.858;8.768;2022-10-16T07:35:24;99154.16;;;19.02;61.98
6506;BME280;3286;49.858;8.768;2022-10-16T07:37:52;99159.03;;;18.65;63.26
6506;BME280;3286;49.858;8.768;2022-10-16T07:40:21;99167.50;;;19.16;61.93
6506;BME280;3286;49.858;8.768;2022-10-16T07:42:48;99162.31;;;19.48;61.07
6506;BME280;3286;49.858;8.768;2022-10-16T07:45:15;99160.91;;;19.25;61.53
6506;BME280;3286;49.858;8.768;2022-10-16T07:47:43;99170.19;;;19.22;61.46
6506;BME280;3286;49.858;8.768;2022-10-16T07:50:18;99165.00;;;19.48;61.23
6506;BME280;3286;49.858;8.768;2022-10-16T07:52:46;99178.84;;;19.04;62.08
6506;BME280;3286;49.858;8.768;2022-10-16T07:55:15;99179.25;;;19.08;61.95
6506;BME280;3286;49.858;8.768;2022-10-16T07:57:41;99174.47;;;18.90;62.84
6506;BME280;3286;49.858;8.768;2022-10-16T08:00:09;99173.50;;;19.04;62.09
6506;BME280;3286;49.858;8.768;2022-10-16T08:02:40;99172.66;;;19.24;61.85
6506;BME280;3286;49.858;8.768;2022-10-16T08:05:08;99173.69;;;19.23;61.60
6506;BME280;3286;49.858;8.768;2022-10-16T08:07:34;99168.09;;;19.31;61.32
6506;BME280;3286;49.858;8.768;2022-10-16T08:10:05;99182.06;;;19.60;60.88
6506;BME280;3286;49.858;8.768;2022-10-16T08:12:34;99178.84;;;19.04;62.20
6506;BME280;3286;49.858;8.768;2022-10-16T08:15:00;99184.63;;;19.21;62.17
6506;BME280;3286;49.858;8.768;2022-10-16T08:17:27;99185.78;;;19.52;61.29
6506;BME280;3286;49.858;8.768;2022-10-16T08:19:56;99183.63;;;19.95;60.25
6506;BME280;3286;49.858;8.768;2022-10-16T08:22:25;99201.00;;;19.72;60.62
6506;BME280;3286;49.858;8.768;2022-10-16T08:24:54;99200.34;;;19.83;60.46
6506;BME280;3286;49.858;8.768;2022-10-16T08:27:22;99201.16;;;19.97;60.07
6506;BME280;3286;49.858;8.768;2022-10-16T08:29:50;99209.53;;;20.21;59.76
6506;BME280;3286;49.858;8.768;2022-10-16T08:32:17;99210.16;;;20.23;59.71
6506;BME280;3286;49.858;8.768;2022-10-16T08:34:43;99214.91;;;20.53;58.96
6506;BME280;3286;49.858;8.768;2022-10-16T08:37:10;99222.00;;;20.02;60.38
6506;BME280;3286;49.858;8.768;2022-10-16T08:39:39;99227.91;;;20.18;59.56
6506;BME280;3286;49.858;8.768;2022-10-16T08:42:27;99241.22;;;20.38;58.85
6506;BME280;3286;49.858;8.768;2022-10-16T08:45:11;99252.72;;;19.93;60.54
6506;BME280;3286;49.858;8.768;2022-10-16T08:48:02;99270.81;;;20.11;60.73
6506;BME280;3286;49.858;8.768;2022-10-16T08:50:33;99281.41;;;19.79;61.57
6506;BME280;3286;49.858;8.768;2022-10-16T08:53:06;99254.78;;;19.97;60.93
6506;BME280;3286;49.858;8.768;2022-10-16T08:55:41;99260.84;;;19.25;63.07
6506;BME280;3286;49.858;8.768;2022-10-16T08:58:13;99259.09;;;18.91;64.99
6506;BME280;3286;49.858;8.768;2022-10-16T09:00:42;99257.56;;;18.54;66.09
6506;BME280;3286;49.858;8.768;2022-10-16T09:03:16;99268.66;;;19.14;63.97
6506;BME280;3286;49.858;8.768;2022-10-16T09:05:57;99271.94;;;19.29;63.55
6506;BME280;3286;49.858;8.768;2022-10-16T09:08:35;99273.78;;;19.15;63.94
6506;BME280;3286;49.858;8.768;2022-10-16T09:11:11;99284.50;;;19.15;63.91
6506;BME280;3286;49.858;8.768;2022-10-16T09:13:48;99282.03;;;19.14;64.01
6506;BME280;3286;49.858;8.768;2022-10-16T09:16:20;99284.31;;;19.44;63.12
6506;BME280;3286;49.858;8.768;2022-10-16T09:18:55;99285.34;;;19.63;62.59
6506;BME280;3286;49.858;8.768;2022-10-16T09:21:26;99295.00;;;19.50;62.58
6506;BME280;3286;49.858;8.768;2022-10-16T09:23:57;99297.50;;;19.18;63.56
6506;BME280;3286;49.858;8.768;2022-10-16T09:26:25;99294.19;;;19.36;63.23
6506;BME280;3286;49.858;8.768;2022-10-16T09:28:53;99302.44;;;19.35;63.70
6506;BME280;3286;49.858;8.768;2022-10-16T09:31:21;99298.13;;;19.40;62.94
6506;BME280;3286;49.858;8.768;2022-10-16T09:33:53;99309.88;;;19.33;64.31
6506;BME280;3286;49.858;8.768;2022-10-16T09:36:23;99308.59;;;20.03;62.00
6506;BME280;3286;49.858;8.768;2022-10-16T09:39:02;99310.06;;;19.85;62.41
6506;BME280;3286;49.858;8.768;2022-10-16T09:41:29;99310.19;;;20.24;61.36
6506;BME280;3286;49.858;8.768;2022-10-16T09:43:59;99303.66;;;20.06;61.48
6506;BME280;3286;49.858;8.768;2022-10-16T09:46:28;99310.78;;;20.33;60.73
6506;BME280;3286;49.858;8.768;2022-10-16T09:48:57;99308.81;;;20.01;62.02
6506;BME280;3286;49.858;8.768;2022-10-16T09:51:27;99317.69;;;19.88;62.72
6506;BME280;3286;49.858;8.768;2022-10-16T09:53:57;99317.75;;;20.47;61.14
6506;BME280;3286;49.858;8.768;2022-10-16T09:56:27;99320.69;;;20.84;61.02
6506;BME280;3286;49.858;8.768;2022-10-16T09:58:57;99325.44;;;20.89;60.76
6506;BME280;3286;49.858;8.768;2022-10-16T10:01:28;99318.03;;;21.74;58.11
6506;BME280;3286;49.858;8.768;2022-10-16T10:03:58;99314.44;;;22.24;57.08
6506;BME280;3286;49.858;8.768;2022-10-16T10:06:30;99312.75;;;22.42;56.53
6506;BME280;3286;49.858;8.768;2022-10-16T10:09:02;99324.88;;;22.33;57.17
6506;BME280;3286;49.858;8.768;2022-10-16T10:11:40;99323.00;;;22.33;57.00
6506;BME280;3286;49.858;8.768;2022-10-16T10:14:16;99324.41;;;22.17;56.69
6506;BME280;3286;49.858;8.768;2022-10-16T10:16:44;99322.03;;;22.27;56.51
6506;BME280;3286;49.858;8.768;2022-10-16T10:19:14;99329.31;;;22.46;56.28
6506;BME280;3286;49.858;8.768;2022-10-16T10:21:44;99328.19;;;22.84;54.90
6506;BME280;3286;49.858;8.768;2022-10-16T10:24:14;99322.38;;;22.87;54.97
6506;BME280;3286;49.858;8.768;2022-10-16T10:26:48;99327.81;;;23.11;54.01
6506;BME280;3286;49.858;8.768;2022-10-16T10:29:29;99325.03;;;23.18;54.04
6506;BME280;3286;49.858;8.768;2022-10-16T10:32:05;99325.66;;;22.89;54.37
6506;BME280;3286;49.858;8.768;2022-10-16T10:34:49;99322.69;;;23.21;54.11
6506;BME280;3286;49.858;8.768;2022-10-16T10:37:31;99320.25;;;22.58;55.22
6506;BME280;3286;49.858;8.768;2022-10-16T10:40:04;99319.47;;;23.00;53.26
6506;BME280;3286;49.858;8.768;2022-10-16T10:42:36;99331.28;;;19.87;61.82
6506;BME280;3286;49.858;8.768;2022-10-16T10:45:18;99319.03;;;21.98;56.90
6506;BME280;3286;49.858;8.768;2022-10-16T10:48:04;99314.81;;;23.08;53.88
6506;BME280;3286;49.858;8.768;2022-10-16T10:50:39;99310.25;;;23.08;53.21
6506;BME280;3286;49.858;8.768;2022-10-16T10:53:21;99319.97;;;23.52;52.93
6506;BME280;3286;49.858;8.768;2022-10-16T10:55:55;99318.22;;;24.05;52.11
6506;BME280;3286;49.858;8.768;2022-10-16T10:59:00;99309.09;;;22.18;55.36
6506;BME280;3286;49.858;8.768;2022-10-16T11:01:39;99314.63;;;22.04;55.50
6506;BME280;3286;49.858;8.768;2022-10-16T11:07:11;99303.59;;;22.50;55.02
6506;BME280;3286;49.858;8.768;2022-10-16T11:09:44;99313.78;;;22.48;53.97
6506;BME280;3286;49.858;8.768;2022-10-16T11:12:20;99296.50;;;23.28;53.15
6506;BME280;3286;49.858;8.768;2022-10-16T11:14:51;99303.09;;;23.68;51.43
6506;BME280;3286;49.858;8.768;2022-10-16T11:17:27;99306.03;;;23.55;51.92
6506;BME280;3286;49.858;8.768;2022-10-16T11:20:00;99308.97;;;24.01;51.01
6506;BME280;3286;49.858;8.768;2022-10-16T11:22:35;99309.53;;;24.15;50.91
6506;BME280;3286;49.858;8.768;2022-10-16T11:25:18;99295.13;;;25.25;47.54
6506;BME280;3286;49.858;8.768;2022-10-16T11:27:50;99303.53;;;24.37;49.44
6506;BME280;3286;49.858;8.768;2022-10-16T11:30:21;99305.50;;;22.92;53.43
6506;BME280;3286;49.858;8.768;2022-10-16T11:32:56;99312.56;;;21.81;56.75
6506;BME280;3286;49.858;8.768;2022-10-16T11:35:36;99317.53;;;22.58;53.09
6506;BME280;3286;49.858;8.768;2022-10-16T11:38:14;99320.22;;;23.62;51.12
6506;BME280;3286;49.858;8.768;2022-10-16T11:40:43;99320.53;;;23.42;52.07
6506;BME280;3286;49.858;8.768;2022-10-16T11:43:15;99319.03;;;23.94;50.54
6506;BME280;3286;49.858;8.768;2022-10-16T11:45:49;99320.72;;;24.48;49.11
6506;BME280;3286;49.858;8.768;2022-10-16T11:48:23;99319.88;;;23.94;50.56
6506;BME280;3286;49.858;8.768;2022-10-16T11:50:53;99319.38;;;24.33;48.90
6506;BME280;3286;49.858;8.768;2022-10-16T11:53:32;99318.72;;;24.55;48.18
6506;BME280;3286;49.858;8.768;2022-10-16T11:56:03;99317.97;;;24.71;48.28
6506;BME280;3286;49.858;8.768;2022-10-16T11:58:35;99313.66;;;23.58;50.89
6506;BME280;3286;49.858;8.768;2022-10-16T12:01:17;99309.41;;;23.98;49.35
6506;BME280;3286;49.858;8.768;2022-10-16T12:03:50;99302.63;;;23.59;51.00
6506;BME280;3286;49.858;8.768;2022-10-16T12:06:30;99302.97;;;24.11;50.17
6506;BME280;3286;49.858;8.768;2022-10-16T12:08:58;99301.22;;;24.05;49.85
6506;BME280;3286;49.858;8.768;2022-10-16T12:11:35;99288.84;;;25.02;48.08
6506;BME280;3286;49.858;8.768;2022-10-16T12:14:18;99287.28;;;25.24;47.76
6506;BME280;3286;49.858;8.768;2022-10-16T12:16:57;99288.97;;;25.59;46.53
6506;BME280;3286;49.858;8.768;2022-10-16T12:19:27;99299.75;;;24.67;47.60
6506;BME280;3286;49.858;8.768;2022-10-16T12:21:56;99308.75;;;21.70;54.65
6506;BME280;3286;49.858;8.768;2022-10-16T12:24:35;99311.31;;;21.83;55.26
6506;BME280;3286;49.858;8.768;2022-10-16T12:27:04;99296.88;;;23.56;51.01
6506;BME280;3286;49.858;8.768;2022-10-16T12:29:36;99302.34;;;22.95;52.43
6506;BME280;3286;49.858;8.768;2022-10-16T12:32:05;99288.81;;;24.85;47.53
6506;BME280;3286;49.858;8.768;2022-10-16T12:34:48;99308.91;;;24.37;48.16
6506;BME280;3286;49.858;8.768;2022-10-16T12:37:23;99305.53;;;24.99;47.78
6506;BME280;3286;49.858;8.768;2022-10-16T12:39:52;99305.00;;;24.44;48.59
6506;BME280;3286;49.858;8.768;2022-10-16T12:42:23;99315.22;;;22.93;50.51
6506;BME280;3286;49.858;8.768;2022-10-16T12:44:50;99324.88;;;22.70;52.52
6506;BME280;3286;49.858;8.768;2022-10-16T12:47:21;99322.09;;;23.07;51.35
6506;BME280;3286;49.858;8.768;2022-10-16T12:49:52;99311.41;;;22.70;52.50
6506;BME280;3286;49.858;8.768;2022-10-16T12:52:28;99319.84;;;23.58;50.63
6506;BME280;3286;49.858;8.768;2022-10-16T12:54:56;99320.41;;;24.32;49.19
6506;BME280;3286;49.858;8.768;2022-10-16T12:57:34;99318.94;;;24.12;49.54
6506;BME280;3286;49.858;8.768;2022-10-16T13:00:18;99324.09;;;23.78;49.93
6506;BME280;3286;49.858;8.768;2022-10-16T13:06:12;99324.19;;;24.31;50.03
6506;BME280;3286;49.858;8.768;2022-10-16T13:09:02;99318.00;;;24.19;49.82
6506;BME280;3286;49.858;8.768;2022-10-16T13:11:41;99318.41;;;24.39;49.38
6506;BME280;3286;49.858;8.768;2022-10-16T13:14:24;99315.63;;;24.22;49.18
6506;BME280;3286;49.858;8.768;2022-10-16T13:17:04;99323.97;;;24.33;49.28
6506;BME280;3286;49.858;8.768;2022-10-16T13:19:41;99332.03;;;23.49;51.49
6506;BME280;3286;49.858;8.768;2022-10-16T13:22:17;99330.78;;;23.76;51.44
6506;BME280;3286;49.858;8.768;2022-10-16T13:24:54;99322.31;;;23.84;50.26
6506;BME280;3286;49.858;8.768;2022-10-16T13:27:33;99327.47;;;23.73;51.29
6506;BME280;3286;49.858;8.768;2022-10-16T13:30:11;99320.69;;;23.71;51.39
6506;BME280;3286;49.858;8.768;2022-10-16T13:32:45;99321.88;;;23.75;51.25
6506;BME280;3286;49.858;8.768;2022-10-16T13:35:21;99323.50;;;23.64;51.70
6506;BME280;3286;49.858;8.768;2022-10-16T13:37:49;99319.38;;;23.38;52.48
6506;BME280;3286;49.858;8.768;2022-10-16T13:40:21;99321.34;;;23.42;52.15
6506;BME280;3286;49.858;8.768;2022-10-16T13:42:51;99324.44;;;23.15;52.61
6506;BME280;3286;49.858;8.768;2022-10-16T13:45:24;99327.66;;;23.24;52.58
6506;BME280;3286;49.858;8.768;2022-10-16T13:48:01;99333.03;;;22.94;53.67
6506;BME280;3286;49.858;8.768;2022-10-16T13:50:28;99329.41;;;23.00;53.28